sensor_id;sensor_type;location;lat;lon;timestamp;temperature;humidity
23323;DHT22;11833;52.554;13.554;2023-04-28T00:00:49;7.60;73.50
23323;DHT22;11833;52.554;13.554;2023-04-28T00:03:15;7.60;72.00
23323;DHT22;11833;52.554;13.554;2023-04-28T00:05:41;7.60;71.70
23323;DHT22;11833;52.554;13.554;2023-04-28T00:08:07;7.60;72.00
23323;DHT22;11833;52.554;13.554;2023-04-28T00:10:33;7.60;74.60
23323;DHT22;11833;52.554;13.554;2023-04-28T00:12:59;7.50;74.10
23323;DHT22;11833;52.554;13.554;2023-04-28T00:15:25;7.50;71.50
23323;DHT22;11833;52.554;13.554;2023-04-28T00:17:51;7.40;71.80
23323;DHT22;11833;52.554;13.554;2023-04-28T00:20:17;7.50;73.30
23323;DHT22;11833;52.554;13.554;2023-04-28T00:22:43;7.50;73.20
23323;DHT22;11833;52.554;13.554;2023-04-28T00:25:09;7.40;74.70
23323;DHT22;11833;52.554;13.554;2023-04-28T00:27:35;7.30;75.00
23323;DHT22;11833;52.554;13.554;2023-04-28T00:30:01;7.30;73.80
23323;DHT22;11833;52.554;13.554;2023-04-28T00:32:27;7.30;75.90
23323;DHT22;11833;52.554;13.554;2023-04-28T00:34:53;7.30;74.60
23323;DHT22;11833;52.554;13.554;2023-04-28T00:37:20;7.30;76.00
23323;DHT22;11833;52.554;13.554;2023-04-28T00:39:45;7.20;73.80
23323;DHT22;11833;52.554;13.554;2023-04-28T00:42:12;7.20;74.70
23323;DHT22;11833;52.554;13.554;2023-04-28T00:44:38;7.20;73.80
23323;DHT22;11833;52.554;13.554;2023-04-28T00:47:07;7.20;75.30
23323;DHT22;11833;52.554;13.554;2023-04-28T00:49:35;7.20;76.40
23323;DHT22;11833;52.554;13.554;2023-04-28T00:52:05;7.20;76.40
23323;DHT22;11833;52.554;13.554;2023-04-28T00:54:34;7.10;77.20
23323;DHT22;11833;52.554;13.554;2023-04-28T00:57:00;7.00;77.80
23323;DHT22;11833;52.554;13.554;2023-04-28T00:59:29;7.00;77.40
23323;DHT22;11833;52.554;13.554;2023-04-28T01:01:56;7.00;77.50
23323;DHT22;11833;52.554;13.554;2023-04-28T01:04:22;6.90;77.30
23323;DHT22;11833;52.554;13.554;2023-04-28T01:06:51;7.00;77.80
23323;DHT22;11833;52.554;13.554;2023-04-28T01:09:18;7.00;78.20
23323;DHT22;11833;52.554;13.554;2023-04-28T01:11:43;6.90;78.20
23323;DHT22;11833;52.554;13.554;2023-04-28T01:14:09;6.80;78.20
23323;DHT22;11833;52.554;13.554;2023-04-28T01:16:35;6.80;78.80
23323;DHT22;11833;52.554;13.554;2023-04-28T01:19:06;6.80;79.90
23323;DHT22;11833;52.554;13.554;2023-04-28T01:21:33;6.80;80.10
23323;DHT22;11833;52.554;13.554;2023-04-28T01:24:00;6.80;80.70
23323;DHT22;11833;52.554;13.554;2023-04-28T01:26:26;6.80;80.30
23323;DHT22;11833;52.554;13.554;2023-04-28T01:28:52;6.80;80.90
23323;DHT22;11833;52.554;13.554;2023-04-28T01:31:18;6.80;80.70
23323;DHT22;11833;52.554;13.554;2023-04-28T01:33:44;6.80;81.10
23323;DHT22;11833;52.554;13.554;2023-04-28T01:36:10;6.70;80.70
23323;DHT22;11833;52.554;13.554;2023-04-28T01:38:36;6.70;80.90
23323;DHT22;11833;52.554;13.554;2023-04-28T01:41:01;6.70;80.60
23323;DHT22;11833;52.554;13.554;2023-04-28T01:43:28;6.60;81.60
23323;DHT22;11833;52.554;13.554;2023-04-28T01:45:54;6.70;81.60
23323;DHT22;11833;52.554;13.554;2023-04-28T01:48:19;6.60;83.30
23323;DHT22;11833;52.554;13.554;2023-04-28T01:50:46;6.80;87.90
23323;DHT22;11833;52.554;13.554;2023-04-28T01:53:11;6.80;87.20
23323;DHT22;11833;52.554;13.554;2023-04-28T01:55:38;6.70;88.30
23323;DHT22;11833;52.554;13.554;2023-04-28T01:58:03;6.60;87.00
23323;DHT22;11833;52.554;13.554;2023-04-28T02:00:29;6.60;88.60
23323;DHT22;11833;52.554;13.554;2023-04-28T02:02:55;6.60;89.80
23323;DHT22;11833;52.554;13.554;2023-04-28T02:05:21;6.70;90.90
23323;DHT22;11833;52.554;13.554;2023-04-28T02:07:46;6.60;90.00
23323;DHT22;11833;52.554;13.554;2023-04-28T02:10:12;6.60;90.10
23323;DHT22;11833;52.554;13.554;2023-04-28T02:12:38;6.40;90.40
23323;DHT22;11833;52.554;13.554;2023-04-28T02:15:06;6.30;90.30
23323;DHT22;11833;52.554;13.554;2023-04-28T02:17:33;6.30;91.00
23323;DHT22;11833;52.554;13.554;2023-04-28T02:19:59;6.30;91.00
23323;DHT22;11833;52.554;13.554;2023-04-28T02:22:24;6.30;90.90
23323;DHT22;11833;52.554;13.554;2023-04-28T02:24:50;6.30;91.50
23323;DHT22;11833;52.554;13.554;2023-04-28T02:27:16;6.20;91.80
23323;DHT22;11833;52.554;13.554;2023-04-28T02:29:42;6.20;91.10
23323;DHT22;11833;52.554;13.554;2023-04-28T02:32:08;6.20;91.20
23323;DHT22;11833;52.554;13.554;2023-04-28T02:34:34;6.10;91.00
23323;DHT22;11833;52.554;13.554;2023-04-28T02:36:59;6.10;92.00
23323;DHT22;11833;52.554;13.554;2023-04-28T02:39:25;6.20;91.60
23323;DHT22;11833;52.554;13.554;2023-04-28T02:41:52;6.10;91.00
23323;DHT22;11833;52.554;13.554;2023-04-28T02:44:19;6.10;91.70
23323;DHT22;11833;52.554;13.554;2023-04-28T02:46:45;6.10;90.90
23323;DHT22;11833;52.554;13.554;2023-04-28T02:49:10;6.00;90.80
23323;DHT22;11833;52.554;13.554;2023-04-28T02:51:37;6.00;92.00
23323;DHT22;11833;52.554;13.554;2023-04-28T02:54:02;6.00;92.40
23323;DHT22;11833;52.554;13.554;2023-04-28T02:56:29;5.90;91.40
23323;DHT22;11833;52.554;13.554;2023-04-28T02:58:55;5.90;91.50
23323;DHT22;11833;52.554;13.554;2023-04-28T03:01:21;6.00;92.50
23323;DHT22;11833;52.554;13.554;2023-04-28T03:03:47;5.90;91.30
23323;DHT22;11833;52.554;13.554;2023-04-28T03:06:13;5.90;91.90
23323;DHT22;11833;52.554;13.554;2023-04-28T03:08:39;6.00;92.20
23323;DHT22;11833;52.554;13.554;2023-04-28T03:11:05;5.90;91.50
23323;DHT22;11833;52.554;13.554;2023-04-28T03:13:30;6.00;92.40
23323;DHT22;11833;52.554;13.554;2023-04-28T03:15:56;6.00;91.70
23323;DHT22;11833;52.554;13.554;2023-04-28T03:18:22;6.00;91.70
23323;DHT22;11833;52.554;13.554;2023-04-28T03:20:48;6.00;91.60
23323;DHT22;11833;52.554;13.554;2023-04-28T03:23:14;6.00;91.90
23323;DHT22;11833;52.554;13.554;2023-04-28T03:25:40;5.90;91.20
23323;DHT22;11833;52.554;13.554;2023-04-28T03:28:06;6.00;91.60
23323;DHT22;11833;52.554;13.554;2023-04-28T03:30:32;6.00;91.40
23323;DHT22;11833;52.554;13.554;2023-04-28T03:32:58;6.00;91.60
23323;DHT22;11833;52.554;13.554;2023-04-28T03:35:24;6.10;92.60
23323;DHT22;11833;52.554;13.554;2023-04-28T03:37:49;6.10;91.70
23323;DHT22;11833;52.554;13.554;2023-04-28T03:40:15;6.10;91.30
23323;DHT22;11833;52.554;13.554;2023-04-28T03:42:42;6.10;92.10
23323;DHT22;11833;52.554;13.554;2023-04-28T03:45:08;6.10;91.50
23323;DHT22;11833;52.554;13.554;2023-04-28T03:47:34;6.10;92.10
23323;DHT22;11833;52.554;13.554;2023-04-28T03:50:00;6.10;91.60
23323;DHT22;11833;52.554;13.554;2023-04-28T03:52:26;6.10;91.50
23323;DHT22;11833;52.554;13.554;2023-04-28T03:54:51;6.10;91.30
23323;DHT22;11833;52.554;13.554;2023-04-28T03:57:17;6.10;91.70
23323;DHT22;11833;52.554;13.554;2023-04-28T03:59:43;6.00;91.30
23323;DHT22;11833;52.554;13.554;2023-04-28T04:02:09;6.10;91.30
23323;DHT22;11833;52.554;13.554;2023-04-28T04:04:34;6.10;92.10
23323;DHT22;11833;52.554;13.554;2023-04-28T04:07:00;6.10;92.20
23323;DHT22;11833;52.554;13.554;2023-04-28T04:09:26;6.00;91.70
23323;DHT22;11833;52.554;13.554;2023-04-28T04:11:52;6.00;91.30
23323;DHT22;11833;52.554;13.554;2023-04-28T04:14:18;6.00;91.80
23323;DHT22;11833;52.554;13.554;2023-04-28T04:16:45;6.10;92.50
23323;DHT22;11833;52.554;13.554;2023-04-28T04:19:12;6.10;91.50
23323;DHT22;11833;52.554;13.554;2023-04-28T04:21:38;6.10;91.50
23323;DHT22;11833;52.554;13.554;2023-04-28T04:24:04;6.00;91.60
23323;DHT22;11833;52.554;13.554;2023-04-28T04:26:30;6.10;91.50
23323;DHT22;11833;52.554;13.554;2023-04-28T04:28:56;6.10;91.30
23323;DHT22;11833;52.554;13.554;2023-04-28T04:31:22;6.10;91.00
23323;DHT22;11833;52.554;13.554;2023-04-28T04:33:48;6.10;90.70
23323;DHT22;11833;52.554;13.554;2023-04-28T04:36:13;6.00;90.80
23323;DHT22;11833;52.554;13.554;2023-04-28T04:38:39;6.10;91.30
23323;DHT22;11833;52.554;13.554;2023-04-28T04:41:05;6.20;91.30
23323;DHT22;11833;52.554;13.554;2023-04-28T04:43:31;6.20;91.50
23323;DHT22;11833;52.554;13.554;2023-04-28T04:45:57;6.20;91.00
23323;DHT22;11833;52.554;13.554;2023-04-28T04:48:22;6.20;91.80
23323;DHT22;11833;52.554;13.554;2023-04-28T04:50:48;6.20;91.40
23323;DHT22;11833;52.554;13.554;2023-04-28T04:53:14;6.20;91.40
23323;DHT22;11833;52.554;13.554;2023-04-28T04:55:40;6.30;91.70
23323;DHT22;11833;52.554;13.554;2023-04-28T04:58:06;6.30;90.70
23323;DHT22;11833;52.554;13.554;2023-04-28T05:00:32;6.40;90.70
23323;DHT22;11833;52.554;13.554;2023-04-28T05:02:58;6.40;90.80
23323;DHT22;11833;52.554;13.554;2023-04-28T05:05:24;6.40;91.40
23323;DHT22;11833;52.554;13.554;2023-04-28T05:07:50;6.50;92.10
23323;DHT22;11833;52.554;13.554;2023-04-28T05:10:16;6.50;92.40
23323;DHT22;11833;52.554;13.554;2023-04-28T05:12:41;6.60;92.00
23323;DHT22;11833;52.554;13.554;2023-04-28T05:15:09;6.50;91.70
23323;DHT22;11833;52.554;13.554;2023-04-28T05:17:35;6.60;91.60
23323;DHT22;11833;52.554;13.554;2023-04-28T05:20:01;6.70;91.50
23323;DHT22;11833;52.554;13.554;2023-04-28T05:22:27;6.70;91.20
23323;DHT22;11833;52.554;13.554;2023-04-28T05:24:52;6.70;91.30
23323;DHT22;11833;52.554;13.554;2023-04-28T05:27:18;6.70;91.60
23323;DHT22;11833;52.554;13.554;2023-04-28T05:29:44;6.70;91.60
23323;DHT22;11833;52.554;13.554;2023-04-28T05:32:10;6.80;91.80
23323;DHT22;11833;52.554;13.554;2023-04-28T05:34:35;6.80;91.50
23323;DHT22;11833;52.554;13.554;2023-04-28T05:37:01;6.90;91.30
23323;DHT22;11833;52.554;13.554;2023-04-28T05:39:27;6.90;91.90
23323;DHT22;11833;52.554;13.554;2023-04-28T05:41:53;7.00;91.80
23323;DHT22;11833;52.554;13.554;2023-04-28T05:44:18;7.00;91.90
23323;DHT22;11833;52.554;13.554;2023-04-28T05:46:44;7.10;91.80
23323;DHT22;11833;52.554;13.554;2023-04-28T05:49:10;7.20;92.00
23323;DHT22;11833;52.554;13.554;2023-04-28T05:51:36;7.20;91.10
23323;DHT22;11833;52.554;13.554;2023-04-28T05:54:03;7.30;92.30
23323;DHT22;11833;52.554;13.554;2023-04-28T05:56:28;7.40;91.80
23323;DHT22;11833;52.554;13.554;2023-04-28T05:58:54;7.50;92.80
23323;DHT22;11833;52.554;13.554;2023-04-28T06:01:21;7.50;91.60
23323;DHT22;11833;52.554;13.554;2023-04-28T06:03:47;7.50;91.70
23323;DHT22;11833;52.554;13.554;2023-04-28T06:06:13;7.70;92.00
23323;DHT22;11833;52.554;13.554;2023-04-28T06:08:39;7.80;92.20
23323;DHT22;11833;52.554;13.554;2023-04-28T06:11:05;7.90;92.20
23323;DHT22;11833;52.554;13.554;2023-04-28T06:13:31;7.90;91.50
23323;DHT22;11833;52.554;13.554;2023-04-28T06:15:57;8.00;91.80
23323;DHT22;11833;52.554;13.554;2023-04-28T06:18:23;8.10;91.60
23323;DHT22;11833;52.554;13.554;2023-04-28T06:20:49;8.20;91.90
23323;DHT22;11833;52.554;13.554;2023-04-28T06:23:15;8.40;91.30
23323;DHT22;11833;52.554;13.554;2023-04-28T06:25:41;8.50;91.80
23323;DHT22;11833;52.554;13.554;2023-04-28T06:28:06;8.60;90.60
23323;DHT22;11833;52.554;13.554;2023-04-28T06:30:33;8.80;91.50
23323;DHT22;11833;52.554;13.554;2023-04-28T06:32:59;8.90;91.30
23323;DHT22;11833;52.554;13.554;2023-04-28T06:35:25;9.10;90.70
23323;DHT22;11833;52.554;13.554;2023-04-28T06:37:51;9.20;91.60
23323;DHT22;11833;52.554;13.554;2023-04-28T06:40:17;9.20;90.00
23323;DHT22;11833;52.554;13.554;2023-04-28T06:42:43;9.50;88.90
23323;DHT22;11833;52.554;13.554;2023-04-28T06:45:09;9.50;88.00
23323;DHT22;11833;52.554;13.554;2023-04-28T06:47:35;9.50;86.30
23323;DHT22;11833;52.554;13.554;2023-04-28T06:50:02;9.80;90.60
23323;DHT22;11833;52.554;13.554;2023-04-28T06:52:28;10.00;89.30
23323;DHT22;11833;52.554;13.554;2023-04-28T06:54:55;10.20;87.60
23323;DHT22;11833;52.554;13.554;2023-04-28T06:57:20;10.20;82.70
23323;DHT22;11833;52.554;13.554;2023-04-28T06:59:46;10.40;88.80
23323;DHT22;11833;52.554;13.554;2023-04-28T07:02:12;10.50;84.70
23323;DHT22;11833;52.554;13.554;2023-04-28T07:04:38;10.50;80.90
23323;DHT22;11833;52.554;13.554;2023-04-28T07:07:04;10.70;83.80
23323;DHT22;11833;52.554;13.554;2023-04-28T07:09:34;10.60;79.00
23323;DHT22;11833;52.554;13.554;2023-04-28T07:12:00;10.50;78.40
23323;DHT22;11833;52.554;13.554;2023-04-28T07:14:26;10.50;83.50
23323;DHT22;11833;52.554;13.554;2023-04-28T07:16:52;10.60;85.60
23323;DHT22;11833;52.554;13.554;2023-04-28T07:19:18;10.80;80.70
23323;DHT22;11833;52.554;13.554;2023-04-28T07:21:43;10.70;75.20
23323;DHT22;11833;52.554;13.554;2023-04-28T07:24:10;10.80;79.40
23323;DHT22;11833;52.554;13.554;2023-04-28T07:26:36;10.90;82.00
23323;DHT22;11833;52.554;13.554;2023-04-28T07:29:02;11.00;77.70
23323;DHT22;11833;52.554;13.554;2023-04-28T07:31:28;11.20;81.90
23323;DHT22;11833;52.554;13.554;2023-04-28T07:33:54;11.20;79.70
23323;DHT22;11833;52.554;13.554;2023-04-28T07:36:20;11.20;75.30
23323;DHT22;11833;52.554;13.554;2023-04-28T07:38:46;11.20;75.10
23323;DHT22;11833;52.554;13.554;2023-04-28T07:41:12;11.20;76.70
23323;DHT22;11833;52.554;13.554;2023-04-28T07:43:38;11.30;78.40
23323;DHT22;11833;52.554;13.554;2023-04-28T07:46:06;11.30;77.10
23323;DHT22;11833;52.554;13.554;2023-04-28T07:48:33;11.30;78.50
23323;DHT22;11833;52.554;13.554;2023-04-28T07:51:00;11.30;75.10
23323;DHT22;11833;52.554;13.554;2023-04-28T07:53:26;11.50;77.60
23323;DHT22;11833;52.554;13.554;2023-04-28T07:55:51;11.50;79.50
23323;DHT22;11833;52.554;13.554;2023-04-28T07:58:17;11.60;76.60
23323;DHT22;11833;52.554;13.554;2023-04-28T08:00:43;11.60;74.60
23323;DHT22;11833;52.554;13.554;2023-04-28T08:03:09;11.80;77.60
23323;DHT22;11833;52.554;13.554;2023-04-28T08:05:34;11.90;75.60
23323;DHT22;11833;52.554;13.554;2023-04-28T08:08:00;12.00;73.60
23323;DHT22;11833;52.554;13.554;2023-04-28T08:10:27;12.10;75.40
23323;DHT22;11833;52.554;13.554;2023-04-28T08:12:53;12.10;73.60
23323;DHT22;11833;52.554;13.554;2023-04-28T08:15:19;12.20;70.30
23323;DHT22;11833;52.554;13.554;2023-04-28T08:17:44;12.20;67.20
23323;DHT22;11833;52.554;13.554;2023-04-28T08:20:11;12.30;70.20
23323;DHT22;11833;52.554;13.554;2023-04-28T08:22:39;12.30;66.80
23323;DHT22;11833;52.554;13.554;2023-04-28T08:25:06;12.40;68.40
23323;DHT22;11833;52.554;13.554;2023-04-28T08:27:32;12.60;68.20
23323;DHT22;11833;52.554;13.554;2023-04-28T08:29:59;12.60;65.30
23323;DHT22;11833;52.554;13.554;2023-04-28T08:32:24;12.60;65.00
23323;DHT22;11833;52.554;13.554;2023-04-28T08:34:50;12.80;66.60
23323;DHT22;11833;52.554;13.554;2023-04-28T08:37:16;12.90;63.20
23323;DHT22;11833;52.554;13.554;2023-04-28T08:39:42;13.00;65.00
23323;DHT22;11833;52.554;13.554;2023-04-28T08:42:08;13.10;63.10
23323;DHT22;11833;52.554;13.554;2023-04-28T08:44:38;13.20;63.00
23323;DHT22;11833;52.554;13.554;2023-04-28T08:47:12;13.30;61.90
23323;DHT22;11833;52.554;13.554;2023-04-28T08:49:39;13.40;61.90
23323;DHT22;11833;52.554;13.554;2023-04-28T08:52:15;13.50;61.10
23323;DHT22;11833;52.554;13.554;2023-04-28T08:54:42;13.60;61.40
23323;DHT22;11833;52.554;13.554;2023-04-28T08:57:09;13.80;60.00
23323;DHT22;11833;52.554;13.554;2023-04-28T08:59:39;13.90;59.70
23323;DHT22;11833;52.554;13.554;2023-04-28T09:02:09;14.00;60.00
23323;DHT22;11833;52.554;13.554;2023-04-28T09:04:35;14.10;58.90
23323;DHT22;11833;52.554;13.554;2023-04-28T09:07:01;14.20;58.40
23323;DHT22;11833;52.554;13.554;2023-04-28T09:09:28;14.10;58.50
23323;DHT22;11833;52.554;13.554;2023-04-28T09:11:55;14.40;59.10
23323;DHT22;11833;52.554;13.554;2023-04-28T09:14:30;14.70;57.60
23323;DHT22;11833;52.554;13.554;2023-04-28T09:17:00;15.00;61.40
23323;DHT22;11833;52.554;13.554;2023-04-28T09:19:34;15.10;64.30
23323;DHT22;11833;52.554;13.554;2023-04-28T09:22:01;15.30;64.50
23323;DHT22;11833;52.554;13.554;2023-04-28T09:31:49;15.60;60.60
23323;DHT22;11833;52.554;13.554;2023-04-28T09:34:14;15.60;62.20
23323;DHT22;11833;52.554;13.554;2023-04-28T09:36:40;15.50;59.50
23323;DHT22;11833;52.554;13.554;2023-04-28T09:39:06;15.50;58.80
23323;DHT22;11833;52.554;13.554;2023-04-28T09:41:39;15.50;59.50
23323;DHT22;11833;52.554;13.554;2023-04-28T09:44:17;15.50;60.10
23323;DHT22;11833;52.554;13.554;2023-04-28T09:46:44;15.70;61.60
23323;DHT22;11833;52.554;13.554;2023-04-28T09:49:11;15.80;61.10
23323;DHT22;11833;52.554;13.554;2023-04-28T09:51:38;16.20;66.60
23323;DHT22;11833;52.554;13.554;2023-04-28T09:54:04;16.40;62.20
23323;DHT22;11833;52.554;13.554;2023-04-28T09:56:32;16.40;58.30
23323;DHT22;11833;52.554;13.554;2023-04-28T09:59:00;16.60;59.70
23323;DHT22;11833;52.554;13.554;2023-04-28T10:01:29;16.70;59.40
23323;DHT22;11833;52.554;13.554;2023-04-28T10:03:59;17.10;64.70
23323;DHT22;11833;52.554;13.554;2023-04-28T10:06:27;17.30;59.30
23323;DHT22;11833;52.554;13.554;2023-04-28T10:08:54;17.30;56.50
23323;DHT22;11833;52.554;13.554;2023-04-28T10:11:22;17.30;55.30
23323;DHT22;11833;52.554;13.554;2023-04-28T10:13:50;17.50;63.00
23323;DHT22;11833;52.554;13.554;2023-04-28T10:16:16;17.50;59.30
23323;DHT22;11833;52.554;13.554;2023-04-28T10:18:44;17.70;60.60
23323;DHT22;11833;52.554;13.554;2023-04-28T10:21:11;17.90;55.30
23323;DHT22;11833;52.554;13.554;2023-04-28T10:24:06;18.00;55.50
23323;DHT22;11833;52.554;13.554;2023-04-28T10:27:00;17.80;52.30
23323;DHT22;11833;52.554;13.554;2023-04-28T10:29:31;18.00;56.00
23323;DHT22;11833;52.554;13.554;2023-04-28T10:32:15;18.30;53.20
23323;DHT22;11833;52.554;13.554;2023-04-28T10:34:48;18.50;54.70
23323;DHT22;11833;52.554;13.554;2023-04-28T10:37:14;18.70;55.40
23323;DHT22;11833;52.554;13.554;2023-04-28T10:43:06;18.70;55.60
23323;DHT22;11833;52.554;13.554;2023-04-28T10:48:21;19.20;52.00
23323;DHT22;11833;52.554;13.554;2023-04-28T10:56:10;19.60;49.30
23323;DHT22;11833;52.554;13.554;2023-04-28T10:58:37;19.70;51.60
23323;DHT22;11833;52.554;13.554;2023-04-28T11:04:07;19.50;49.30
23323;DHT22;11833;52.554;13.554;2023-04-28T11:06:43;19.50;49.70
23323;DHT22;11833;52.554;13.554;2023-04-28T11:14:31;19.70;50.20
23323;DHT22;11833;52.554;13.554;2023-04-28T11:17:08;19.70;47.80
23323;DHT22;11833;52.554;13.554;2023-04-28T11:19:38;19.90;49.20
23323;DHT22;11833;52.554;13.554;2023-04-28T11:22:17;20.00;49.20
23323;DHT22;11833;52.554;13.554;2023-04-28T11:24:59;20.30;47.80
23323;DHT22;11833;52.554;13.554;2023-04-28T11:27:27;20.20;46.90
23323;DHT22;11833;52.554;13.554;2023-04-28T11:29:57;20.10;45.50
23323;DHT22;11833;52.554;13.554;2023-04-28T11:32:27;20.20;47.30
23323;DHT22;11833;52.554;13.554;2023-04-28T11:34:57;20.10;45.60
23323;DHT22;11833;52.554;13.554;2023-04-28T11:37:23;20.00;45.00
23323;DHT22;11833;52.554;13.554;2023-04-28T11:39:49;19.90;45.90
23323;DHT22;11833;52.554;13.554;2023-04-28T11:42:15;19.70;45.90
23323;DHT22;11833;52.554;13.554;2023-04-28T11:44:51;19.70;46.40
23323;DHT22;11833;52.554;13.554;2023-04-28T11:47:33;19.60;47.10
23323;DHT22;11833;52.554;13.554;2023-04-28T11:49:59;19.60;46.90
23323;DHT22;11833;52.554;13.554;2023-04-28T11:52:26;19.60;46.70
23323;DHT22;11833;52.554;13.554;2023-04-28T11:54:56;19.70;45.90
23323;DHT22;11833;52.554;13.554;2023-04-28T11:57:24;19.70;45.70
23323;DHT22;11833;52.554;13.554;2023-04-28T11:59:51;19.60;46.50
23323;DHT22;11833;52.554;13.554;2023-04-28T12:02:24;19.70;46.70
23323;DHT22;11833;52.554;13.554;2023-04-28T12:04:53;19.60;46.80
23323;DHT22;11833;52.554;13.554;2023-04-28T12:07:19;19.50;46.70
23323;DHT22;11833;52.554;13.554;2023-04-28T12:12:35;19.50;46.00
23323;DHT22;11833;52.554;13.554;2023-04-28T12:15:05;19.60;47.00
23323;DHT22;11833;52.554;13.554;2023-04-28T12:17:36;19.40;45.50
23323;DHT22;11833;52.554;13.554;2023-04-28T12:20:08;19.50;49.00
23323;DHT22;11833;52.554;13.554;2023-04-28T12:22:45;19.70;46.70
23323;DHT22;11833;52.554;13.554;2023-04-28T12:25:14;19.70;47.40
23323;DHT22;11833;52.554;13.554;2023-04-28T12:27:58;19.70;49.20
23323;DHT22;11833;52.554;13.554;2023-04-28T12:30:29;19.60;47.30
23323;DHT22;11833;52.554;13.554;2023-04-28T12:32:55;19.60;48.70
23323;DHT22;11833;52.554;13.554;2023-04-28T12:35:22;19.60;48.00
23323;DHT22;11833;52.554;13.554;2023-04-28T12:37:49;19.60;48.50
23323;DHT22;11833;52.554;13.554;2023-04-28T12:40:16;19.60;48.40
23323;DHT22;11833;52.554;13.554;2023-04-28T12:42:42;19.40;48.10
23323;DHT22;11833;52.554;13.554;2023-04-28T12:45:08;19.20;48.00
23323;DHT22;11833;52.554;13.554;2023-04-28T12:47:34;19.10;48.50
23323;DHT22;11833;52.554;13.554;2023-04-28T12:50:00;19.00;47.60
23323;DHT22;11833;52.554;13.554;2023-04-28T12:52:26;19.00;48.90
23323;DHT22;11833;52.554;13.554;2023-04-28T12:54:52;19.00;47.60
23323;DHT22;11833;52.554;13.554;2023-04-28T12:57:18;18.90;47.60
23323;DHT22;11833;52.554;13.554;2023-04-28T12:59:45;18.90;48.20
23323;DHT22;11833;52.554;13.554;2023-04-28T13:02:12;19.00;48.30
23323;DHT22;11833;52.554;13.554;2023-04-28T13:04:41;19.20;47.80
23323;DHT22;11833;52.554;13.554;2023-04-28T13:07:09;19.20;47.90
23323;DHT22;11833;52.554;13.554;2023-04-28T13:09:39;19.00;47.80
23323;DHT22;11833;52.554;13.554;2023-04-28T13:12:07;19.00;48.20
23323;DHT22;11833;52.554;13.554;2023-04-28T13:14:34;19.00;48.50
23323;DHT22;11833;52.554;13.554;2023-04-28T13:17:00;19.00;48.80
23323;DHT22;11833;52.554;13.554;2023-04-28T13:19:27;19.20;48.80
23323;DHT22;11833;52.554;13.554;2023-04-28T13:21:55;19.20;47.80
23323;DHT22;11833;52.554;13.554;2023-04-28T13:24:20;19.10;47.40
23323;DHT22;11833;52.554;13.554;2023-04-28T13:26:46;19.10;47.70
23323;DHT22;11833;52.554;13.554;2023-04-28T13:29:12;19.10;47.70
23323;DHT22;11833;52.554;13.554;2023-04-28T13:31:39;19.10;47.30
23323;DHT22;11833;52.554;13.554;2023-04-28T13:34:05;19.00;47.30
23323;DHT22;11833;52.554;13.554;2023-04-28T13:36:32;19.00;47.70
23323;DHT22;11833;52.554;13.554;2023-04-28T13:38:58;19.00;48.80
23323;DHT22;11833;52.554;13.554;2023-04-28T13:41:25;19.00;49.80
23323;DHT22;11833;52.554;13.554;2023-04-28T13:43:51;18.90;48.90
23323;DHT22;11833;52.554;13.554;2023-04-28T13:46:17;18.70;48.00
23323;DHT22;11833;52.554;13.554;2023-04-28T13:48:42;18.50;48.00
23323;DHT22;11833;52.554;13.554;2023-04-28T13:51:08;18.40;48.60
23323;DHT22;11833;52.554;13.554;2023-04-28T13:53:35;18.30;48.70
23323;DHT22;11833;52.554;13.554;2023-04-28T13:56:03;18.20;48.90
23323;DHT22;11833;52.554;13.554;2023-04-28T13:58:30;18.10;49.30
23323;DHT22;11833;52.554;13.554;2023-04-28T14:00:55;18.00;49.70
23323;DHT22;11833;52.554;13.554;2023-04-28T14:03:22;17.70;49.80
23323;DHT22;11833;52.554;13.554;2023-04-28T14:05:50;18.00;49.70
23323;DHT22;11833;52.554;13.554;2023-04-28T14:08:19;18.00;49.60
23323;DHT22;11833;52.554;13.554;2023-04-28T14:10:45;17.80;50.20
23323;DHT22;11833;52.554;13.554;2023-04-28T14:13:11;17.70;50.50
23323;DHT22;11833;52.554;13.554;2023-04-28T14:15:37;17.60;50.70
23323;DHT22;11833;52.554;13.554;2023-04-28T14:18:04;17.50;50.90
23323;DHT22;11833;52.554;13.554;2023-04-28T14:20:31;17.50;51.00
23323;DHT22;11833;52.554;13.554;2023-04-28T14:22:57;17.50;51.50
23323;DHT22;11833;52.554;13.554;2023-04-28T14:25:23;17.50;51.30
23323;DHT22;11833;52.554;13.554;2023-04-28T14:27:49;17.40;51.80
23323;DHT22;11833;52.554;13.554;2023-04-28T14:30:16;17.40;51.90
23323;DHT22;11833;52.554;13.554;2023-04-28T14:32:42;17.30;52.20
23323;DHT22;11833;52.554;13.554;2023-04-28T14:35:14;17.20;53.00
23323;DHT22;11833;52.554;13.554;2023-04-28T14:41:21;16.90;54.40
23323;DHT22;11833;52.554;13.554;2023-04-28T14:43:47;16.80;55.00
23323;DHT22;11833;52.554;13.554;2023-04-28T14:46:13;16.80;55.10
23323;DHT22;11833;52.554;13.554;2023-04-28T14:48:41;16.80;55.10
23323;DHT22;11833;52.554;13.554;2023-04-28T14:51:08;16.80;55.50
23323;DHT22;11833;52.554;13.554;2023-04-28T14:53:34;16.80;55.70
23323;DHT22;11833;52.554;13.554;2023-04-28T14:56:00;16.80;55.80
23323;DHT22;11833;52.554;13.554;2023-04-28T14:58:26;16.70;55.60
23323;DHT22;11833;52.554;13.554;2023-04-28T15:00:52;16.70;55.60
23323;DHT22;11833;52.554;13.554;2023-04-28T15:03:18;16.70;55.70
23323;DHT22;11833;52.554;13.554;2023-04-28T15:05:44;16.70;55.80
23323;DHT22;11833;52.554;13.554;2023-04-28T15:08:10;16.70;55.70
23323;DHT22;11833;52.554;13.554;2023-04-28T15:10:39;16.70;56.00
23323;DHT22;11833;52.554;13.554;2023-04-28T15:13:08;16.60;56.30
23323;DHT22;11833;52.554;13.554;2023-04-28T15:15:34;16.50;56.10
23323;DHT22;11833;52.554;13.554;2023-04-28T15:18:00;16.50;56.30
23323;DHT22;11833;52.554;13.554;2023-04-28T15:20:27;16.60;56.50
23323;DHT22;11833;52.554;13.554;2023-04-28T15:22:55;16.60;56.60
23323;DHT22;11833;52.554;13.554;2023-04-28T15:25:21;16.60;56.40
23323;DHT22;11833;52.554;13.554;2023-04-28T15:27:47;16.70;56.40
23323;DHT22;11833;52.554;13.554;2023-04-28T15:30:15;16.70;56.30
23323;DHT22;11833;52.554;13.554;2023-04-28T15:32:41;16.80;56.20
23323;DHT22;11833;52.554;13.554;2023-04-28T15:35:08;16.80;56.40
23323;DHT22;11833;52.554;13.554;2023-04-28T15:37:45;16.80;56.40
23323;DHT22;11833;52.554;13.554;2023-04-28T15:40:16;16.80;56.60
23323;DHT22;11833;52.554;13.554;2023-04-28T15:42:44;16.70;57.40
23323;DHT22;11833;52.554;13.554;2023-04-28T15:45:14;16.60;57.80
23323;DHT22;11833;52.554;13.554;2023-04-28T15:47:42;16.60;57.70
23323;DHT22;11833;52.554;13.554;2023-04-28T15:50:08;16.50;58.10
23323;DHT22;11833;52.554;13.554;2023-04-28T15:52:39;16.50;58.70
23323;DHT22;11833;52.554;13.554;2023-04-28T15:55:06;16.60;58.90